Airfield :
LOGIN :

Register | Disclaimer

   EN    FR    IT 

 










Legend :    VFR   Marginal VFR   IFR   Intensive IFR   Very Intensive IFR
Visi :
Ceiling :
>= 8 km
>= 3000ft
5 to 8 km
1000 to 3000 ft
1500m to 5 km
500 to 1000 ft
800 to 1500m
200 to 500 ft
< 800m
< 200 ft
Symbols :   Thunderstorms  Fog  Heavy snow  Heavy precipitations  Wind > 20 kt
SIGMETs :     Misc.  Thunderstorms  Icing  Turbulence  Mountain Waves  Volcanic Ashes







- Airport Elevation : 20 ft


EBFN - Koksijde

CURRENT METAR :
  • 221225Z 02013KT 9999 FEW030 SCT037 14/05 Q1035 BLU BLU

EXPIRED METARs :
  • 221155Z 02013KT 9999 FEW025 SCT035 15/05 Q1035 BLU BLU
  • 221125Z 01013KT 9999 FEW025 BKN035 14/06 Q1034 BLU BLU
  • 221055Z 03014KT 9999 FEW025 BKN035 15/06 Q1034 BLU BLU
  • 221025Z 01015KT 9999 FEW023 BKN035 14/05 Q1034 BLU BLU
  • 220955Z 01013KT 9999 FEW023 BKN035 14/06 Q1034 BLU BLU

TAF TAF EBFN
Valid from the 22 at 10:00 until the 22 at 19:00 UTC


220841Z 2210/2219 01015KT 9999 BKN025
No reported NOTAMs for that airfield.



MET'MAP, your aeronautical weather chart ! - Copyright ORBIFLY December 2007 - Disclaimer

ORBIFLY MET'MAP TEAM :

Programming & Development : Alexandra Zaïnal
Concept & Development : Baudouin d'Aumeries
Co-Development & Prog : Marc-Olivier Méhu
Technical & hardware support : Manuel Goepfert

Contact : metmap@orbifly.com




SOURCES & CREDITS :

   NOAA